createdAt,value
2018-09-29T00:01:52.848Z,1.70
2018-09-29T00:04:21.148Z,1.73
2018-09-29T00:06:49.459Z,1.70
2018-09-29T00:09:17.748Z,1.60
2018-09-29T00:11:46.059Z,2.10
2018-09-29T00:14:14.349Z,1.90
2018-09-29T00:16:42.664Z,1.67
2018-09-29T00:19:10.951Z,1.80
2018-09-29T00:21:39.253Z,1.70
2018-09-29T00:24:07.594Z,1.93
2018-09-29T00:26:35.892Z,1.50
2018-09-29T00:29:04.198Z,1.80
2018-09-29T00:31:32.498Z,1.47
2018-09-29T00:34:00.810Z,1.70
2018-09-29T00:36:29.096Z,1.63
2018-09-29T00:38:57.401Z,2.07
2018-09-29T00:41:25.685Z,2.10
2018-09-29T00:43:53.993Z,1.60
2018-09-29T00:46:22.272Z,1.50
2018-09-29T00:48:50.580Z,1.70
2018-09-29T00:51:18.879Z,1.70
2018-09-29T00:53:47.185Z,1.50
2018-09-29T00:56:15.483Z,1.50
2018-09-29T00:58:43.799Z,1.57
2018-09-29T01:01:12.108Z,1.33
2018-09-29T01:03:40.449Z,1.93
2018-09-29T01:06:08.750Z,1.20
2018-09-29T01:08:37.181Z,1.27
2018-09-29T01:11:05.480Z,1.57
2018-09-29T01:13:33.793Z,1.63
2018-09-29T01:16:02.113Z,1.50
2018-09-29T01:18:30.429Z,1.30
2018-09-29T01:20:58.712Z,1.57
2018-09-29T01:23:27.021Z,1.50
2018-09-29T01:25:55.338Z,1.30
2018-09-29T01:28:23.645Z,1.40
2018-09-29T01:30:51.942Z,1.60
2018-09-29T01:33:20.276Z,1.40
2018-09-29T01:35:48.612Z,1.60
2018-09-29T01:38:16.905Z,1.30
2018-09-29T01:40:45.223Z,1.40
2018-09-29T01:43:13.533Z,1.10
2018-09-29T01:45:41.852Z,1.60
2018-09-29T01:48:10.141Z,1.40
2018-09-29T01:50:38.461Z,1.60
2018-09-29T01:53:06.814Z,1.30
2018-09-29T01:55:35.320Z,1.53
2018-09-29T01:58:03.641Z,1.33
2018-09-29T02:00:31.985Z,1.60
2018-09-29T02:03:05.701Z,1.30
2018-09-29T02:05:34.020Z,1.73
2018-09-29T02:08:02.373Z,1.17
2018-09-29T02:10:30.644Z,1.30
2018-09-29T02:12:58.933Z,1.43
2018-09-29T02:15:27.253Z,0.97
2018-09-29T02:17:55.586Z,1.47
2018-09-29T02:20:23.905Z,1.20
2018-09-29T02:22:52.228Z,1.40
2018-09-29T02:25:20.546Z,1.53
2018-09-29T02:27:49.041Z,1.47
2018-09-29T02:30:17.364Z,1.27
2018-09-29T02:32:45.657Z,1.20
2018-09-29T02:35:13.973Z,1.20
2018-09-29T02:37:42.267Z,1.47
2018-09-29T02:40:10.593Z,1.30
2018-09-29T02:42:38.881Z,1.37
2018-09-29T02:45:07.796Z,1.63
2018-09-29T02:47:36.265Z,1.27
2018-09-29T02:50:05.149Z,1.60
2018-09-29T02:52:33.517Z,1.30
2018-09-29T02:55:01.849Z,1.57
2018-09-29T02:57:30.313Z,1.40
2018-09-29T02:59:58.613Z,1.60
2018-09-29T03:02:26.933Z,1.43
2018-09-29T03:04:55.217Z,1.37
2018-09-29T03:07:23.721Z,1.23
2018-09-29T03:09:52.074Z,1.30
2018-09-29T03:12:20.397Z,1.60
2018-09-29T03:14:55.018Z,1.37
2018-09-29T03:17:23.324Z,1.37
2018-09-29T03:19:51.615Z,1.50
2018-09-29T03:22:19.933Z,1.27
2018-09-29T03:24:48.229Z,1.10
2018-09-29T03:27:16.549Z,1.20
2018-09-29T03:29:44.841Z,1.10
2018-09-29T03:32:13.165Z,1.20
2018-09-29T03:34:41.460Z,1.37
2018-09-29T03:37:09.806Z,1.20
2018-09-29T03:39:38.092Z,1.30
2018-09-29T03:42:06.437Z,1.27
2018-09-29T03:44:34.737Z,1.30
2018-09-29T03:47:03.062Z,1.50
2018-09-29T03:49:31.357Z,1.40
2018-09-29T03:51:59.667Z,1.43
2018-09-29T03:54:27.981Z,1.30
2018-09-29T03:56:56.304Z,1.40
2018-09-29T03:59:24.600Z,1.67
2018-09-29T04:01:52.921Z,1.73
2018-09-29T04:04:21.238Z,1.20
2018-09-29T04:06:49.817Z,1.70
2018-09-29T04:09:18.110Z,1.47
2018-09-29T04:11:46.430Z,1.60
2018-09-29T04:14:14.708Z,1.57
2018-09-29T04:16:43.021Z,1.67
2018-09-29T04:19:11.300Z,1.30
2018-09-29T04:21:43.972Z,1.33
2018-09-29T04:24:12.419Z,1.63
2018-09-29T04:26:40.770Z,1.60
2018-09-29T04:29:09.083Z,1.80
2018-09-29T04:31:37.406Z,1.40
2018-09-29T04:34:05.684Z,1.23
2018-09-29T04:36:33.994Z,1.60
2018-09-29T04:39:02.336Z,1.43
2018-09-29T04:41:30.623Z,1.40
2018-09-29T04:43:58.960Z,1.50
2018-09-29T04:46:27.261Z,1.93
2018-09-29T04:48:55.589Z,1.50
2018-09-29T04:51:23.879Z,1.40
2018-09-29T04:53:52.205Z,1.20
2018-09-29T04:56:20.527Z,1.70
2018-09-29T04:58:48.836Z,1.37
2018-09-29T05:01:17.142Z,1.97
2018-09-29T05:03:45.445Z,1.43
2018-09-29T05:06:13.733Z,1.40
2018-09-29T05:08:42.038Z,1.43
2018-09-29T05:11:10.320Z,1.37
2018-09-29T05:13:38.634Z,1.40
2018-09-29T05:16:07.448Z,1.67
2018-09-29T05:18:35.789Z,1.67
2018-09-29T05:21:04.082Z,1.60
2018-09-29T05:23:32.381Z,1.80
2018-09-29T05:26:00.722Z,1.43
2018-09-29T05:28:29.152Z,1.40
2018-09-29T05:30:57.483Z,1.40
2018-09-29T05:33:25.907Z,1.40
2018-09-29T05:35:54.193Z,1.37
2018-09-29T05:38:22.824Z,1.57
2018-09-29T05:40:51.180Z,1.60
2018-09-29T05:43:19.470Z,1.60
2018-09-29T05:45:47.875Z,1.53
2018-09-29T05:48:16.173Z,1.27
2018-09-29T05:50:44.481Z,1.40
2018-09-29T05:53:12.765Z,1.33
2018-09-29T05:55:41.064Z,1.37
2018-09-29T05:58:09.351Z,1.90
2018-09-29T06:00:37.759Z,1.93
2018-09-29T06:03:05.973Z,1.50
2018-09-29T06:05:34.311Z,1.57
2018-09-29T06:08:02.682Z,1.43
2018-09-29T06:10:30.985Z,1.40
2018-09-29T06:12:59.273Z,1.50
2018-09-29T06:15:27.585Z,1.30
2018-09-29T06:17:55.881Z,1.67
2018-09-29T06:20:24.201Z,1.37
2018-09-29T06:22:52.638Z,1.63
2018-09-29T06:25:20.949Z,1.70
2018-09-29T06:27:49.276Z,2.37
2018-09-29T06:30:17.590Z,1.43
2018-09-29T06:32:45.897Z,1.67
2018-09-29T06:35:14.224Z,1.87
2018-09-29T06:37:42.514Z,1.77
2018-09-29T06:40:10.832Z,1.57
2018-09-29T06:42:39.151Z,1.73
2018-09-29T06:45:07.469Z,1.50
2018-09-29T06:47:35.764Z,1.57
2018-09-29T06:50:04.161Z,1.47
2018-09-29T06:52:32.457Z,1.40
2018-09-29T06:55:00.773Z,1.60
2018-09-29T06:57:29.069Z,1.77
2018-09-29T06:59:57.381Z,1.40
2018-09-29T07:02:25.676Z,1.50
2018-09-29T07:04:53.997Z,1.43
2018-09-29T07:07:22.301Z,1.50
2018-09-29T07:09:50.665Z,1.20
2018-09-29T07:12:18.961Z,1.13
2018-09-29T07:14:47.375Z,1.50
2018-09-29T07:17:15.660Z,1.73
2018-09-29T07:19:43.977Z,1.50
2018-09-29T07:22:12.302Z,1.40
2018-09-29T07:24:40.608Z,1.60
2018-09-29T07:27:09.024Z,1.30
2018-09-29T07:29:37.326Z,1.70
2018-09-29T07:32:05.654Z,1.47
2018-09-29T07:34:34.016Z,1.80
2018-09-29T07:37:02.350Z,1.57
2018-09-29T07:39:30.730Z,1.53
2018-09-29T07:41:59.104Z,1.50
2018-09-29T07:44:27.398Z,1.80
2018-09-29T07:46:55.717Z,1.70
2018-09-29T07:49:24.038Z,1.80
2018-09-29T07:51:52.349Z,1.70
2018-09-29T07:54:20.640Z,1.80
2018-09-29T07:56:48.956Z,1.50
2018-09-29T07:59:17.348Z,1.37
2018-09-29T08:01:45.668Z,2.10
2018-09-29T08:04:13.956Z,1.60
2018-09-29T08:06:42.274Z,1.43
2018-09-29T08:09:10.629Z,2.00
2018-09-29T08:11:38.941Z,1.77
2018-09-29T08:14:07.249Z,1.73
2018-09-29T08:16:35.590Z,1.80
2018-09-29T08:19:03.892Z,1.80
2018-09-29T08:21:32.246Z,1.53
2018-09-29T08:24:00.544Z,1.67
2018-09-29T08:26:28.869Z,1.73
2018-09-29T08:28:57.197Z,1.53
2018-09-29T08:31:25.584Z,1.50
2018-09-29T08:33:53.870Z,1.83
2018-09-29T08:36:22.197Z,1.63
2018-09-29T08:38:50.510Z,1.20
2018-09-29T08:41:18.836Z,1.60
2018-09-29T08:43:47.145Z,1.63
2018-09-29T08:46:15.477Z,1.10
2018-09-29T08:48:43.894Z,1.10
2018-09-29T08:51:12.243Z,1.37
2018-09-29T08:53:40.769Z,1.17
2018-09-29T08:56:08.997Z,1.60
2018-09-29T08:58:37.332Z,1.37
2018-09-29T09:01:05.905Z,1.50
2018-09-29T09:03:34.374Z,1.37
2018-09-29T09:06:02.694Z,1.30
2018-09-29T09:08:31.081Z,1.47
2018-09-29T09:10:59.401Z,1.20
2018-09-29T09:13:27.765Z,1.70
2018-09-29T09:15:56.138Z,1.33
2018-09-29T09:18:24.456Z,1.30
2018-09-29T09:20:52.765Z,1.10
2018-09-29T09:23:21.110Z,1.10
2018-09-29T09:25:49.427Z,1.20
2018-09-29T09:28:17.746Z,1.20
2018-09-29T09:30:46.062Z,1.13
2018-09-29T09:33:14.374Z,1.10
2018-09-29T09:35:42.682Z,1.47
2018-09-29T09:38:11.004Z,1.20
2018-09-29T09:40:39.313Z,1.47
2018-09-29T09:43:07.714Z,1.00
2018-09-29T09:45:36.173Z,1.23
2018-09-29T09:48:04.490Z,1.20
2018-09-29T09:50:33.133Z,1.40
2018-09-29T09:53:01.449Z,1.00
2018-09-29T09:55:29.741Z,1.20
2018-09-29T09:57:58.172Z,1.40
2018-09-29T10:00:31.913Z,1.33
2018-09-29T10:03:05.488Z,1.13
2018-09-29T10:05:33.794Z,1.27
2018-09-29T10:08:02.133Z,1.20
2018-09-29T10:10:30.444Z,1.10
2018-09-29T10:12:58.769Z,0.97
2018-09-29T10:15:27.089Z,0.93
2018-09-29T10:17:55.407Z,1.10
2018-09-29T10:20:23.734Z,1.23
2018-09-29T10:22:52.060Z,1.20
2018-09-29T10:25:20.360Z,1.27
2018-09-29T10:27:48.705Z,1.30
2018-09-29T10:30:17.008Z,1.40
2018-09-29T10:32:45.377Z,1.20
2018-09-29T10:35:13.681Z,1.40
2018-09-29T10:37:42.170Z,1.70
2018-09-29T10:40:10.493Z,1.23
2018-09-29T10:42:38.809Z,1.50
2018-09-29T10:45:07.188Z,1.33
2018-09-29T10:47:35.484Z,1.87
2018-09-29T10:50:03.842Z,1.30
2018-09-29T10:52:32.154Z,1.70
2018-09-29T10:55:00.469Z,1.30
2018-09-29T10:57:28.769Z,1.73
2018-09-29T10:59:57.090Z,1.70
2018-09-29T11:02:25.389Z,1.50
2018-09-29T11:04:53.810Z,1.80
2018-09-29T11:07:22.105Z,1.57
2018-09-29T11:09:50.420Z,1.50
2018-09-29T11:12:18.737Z,1.13
2018-09-29T11:14:47.141Z,1.17
2018-09-29T11:17:15.453Z,1.30
2018-09-29T11:19:43.772Z,1.20
2018-09-29T11:22:12.086Z,1.20
2018-09-29T11:24:40.407Z,1.47
2018-09-29T11:27:08.701Z,1.23
2018-09-29T11:29:37.013Z,1.43
2018-09-29T11:32:05.314Z,1.20
2018-09-29T11:34:33.627Z,1.40
2018-09-29T11:37:01.915Z,1.10
2018-09-29T11:39:30.274Z,1.40
2018-09-29T11:41:58.562Z,1.27
2018-09-29T11:44:26.873Z,1.17
2018-09-29T11:46:55.179Z,1.70
2018-09-29T11:49:23.493Z,1.20
2018-09-29T11:51:51.793Z,1.40
2018-09-29T11:54:20.106Z,1.27
2018-09-29T11:56:48.389Z,1.30
2018-09-29T11:59:16.692Z,1.37
2018-09-29T12:01:45.066Z,1.30
2018-09-29T12:04:13.368Z,1.43
2018-09-29T12:06:41.661Z,1.30
2018-09-29T12:09:11.422Z,1.10
2018-09-29T12:11:39.722Z,1.03
2018-09-29T12:14:08.035Z,1.20
2018-09-29T12:16:36.662Z,1.20
2018-09-29T12:19:05.017Z,1.20
2018-09-29T12:21:33.305Z,1.07
2018-09-29T12:24:01.622Z,0.97
2018-09-29T12:26:29.925Z,1.23
2018-09-29T12:28:58.242Z,1.23
2018-09-29T12:31:26.541Z,1.10
2018-09-29T12:33:54.865Z,1.20
2018-09-29T12:36:23.157Z,1.00
2018-09-29T12:38:51.466Z,1.00
2018-09-29T12:41:19.761Z,1.10
2018-09-29T12:43:48.073Z,0.90
2018-09-29T12:46:16.373Z,1.23
2018-09-29T12:48:44.680Z,1.10
2018-09-29T12:51:12.993Z,0.90
2018-09-29T12:53:41.281Z,0.97
2018-09-29T12:56:09.587Z,1.20
2018-09-29T12:58:37.878Z,1.10
2018-09-29T13:01:06.201Z,1.13
2018-09-29T13:03:34.494Z,1.10
2018-09-29T13:06:02.805Z,1.03
2018-09-29T13:08:31.095Z,0.80
2018-09-29T13:10:59.471Z,0.90
2018-09-29T13:13:27.732Z,1.07
2018-09-29T13:15:56.078Z,0.90
2018-09-29T13:18:24.401Z,1.00
2018-09-29T13:20:52.733Z,0.90
2018-09-29T13:23:21.037Z,0.97
2018-09-29T13:25:49.361Z,1.20
2018-09-29T13:28:18.016Z,1.17
2018-09-29T13:30:46.369Z,1.20
2018-09-29T13:33:14.661Z,1.17
2018-09-29T13:35:42.971Z,1.13
2018-09-29T13:38:11.268Z,1.30
2018-09-29T13:40:39.580Z,0.90
2018-09-29T13:43:07.919Z,0.83
2018-09-29T13:45:37.123Z,0.83
2018-09-29T13:48:05.436Z,0.70
2018-09-29T13:50:33.924Z,0.93
2018-09-29T13:53:02.221Z,0.90
2018-09-29T13:55:30.529Z,1.20
2018-09-29T13:57:58.829Z,1.10
2018-09-29T14:00:27.155Z,0.97
2018-09-29T14:02:55.461Z,0.90
2018-09-29T14:05:23.774Z,1.10
2018-09-29T14:07:52.060Z,1.10
2018-09-29T14:10:20.382Z,1.00
2018-09-29T14:12:48.684Z,1.03
2018-09-29T14:15:17.045Z,0.93
2018-09-29T14:17:45.341Z,0.97
2018-09-29T14:20:13.653Z,1.10
2018-09-29T14:22:41.965Z,1.00
2018-09-29T14:25:10.282Z,1.03
2018-09-29T14:27:38.568Z,0.87
2018-09-29T14:30:07.002Z,0.80
2018-09-29T14:32:35.241Z,0.90
2018-09-29T14:35:03.569Z,1.00
2018-09-29T14:37:31.902Z,0.87
2018-09-29T14:40:00.198Z,1.40
2018-09-29T14:42:28.503Z,1.10
2018-09-29T14:44:56.819Z,0.90
2018-09-29T14:47:25.125Z,1.27
2018-09-29T14:49:53.426Z,1.10
2018-09-29T14:52:21.787Z,0.93
2018-09-29T14:54:50.045Z,1.10
2018-09-29T14:57:18.364Z,0.87
2018-09-29T14:59:46.761Z,0.90
2018-09-29T15:02:15.085Z,1.33
2018-09-29T15:04:43.526Z,1.10
2018-09-29T15:07:11.862Z,1.03
2018-09-29T15:09:40.161Z,1.10
2018-09-29T15:12:08.563Z,1.10
2018-09-29T15:14:36.878Z,1.13
2018-09-29T15:17:05.241Z,1.10
2018-09-29T15:19:33.541Z,1.30
2018-09-29T15:22:01.957Z,1.00
2018-09-29T15:24:30.253Z,1.00
2018-09-29T15:26:58.570Z,0.90
2018-09-29T15:29:26.872Z,1.00
2018-09-29T15:31:55.189Z,1.03
2018-09-29T15:34:23.486Z,0.87
2018-09-29T15:36:51.832Z,1.27
2018-09-29T15:39:20.115Z,0.90
2018-09-29T15:41:48.433Z,0.83
2018-09-29T15:44:16.745Z,1.00
2018-09-29T15:46:45.169Z,0.90
2018-09-29T15:49:13.593Z,1.10
2018-09-29T15:51:41.913Z,1.00
2018-09-29T15:54:10.213Z,0.90
2018-09-29T15:56:38.537Z,0.83
2018-09-29T15:59:06.844Z,1.20
2018-09-29T16:01:35.160Z,1.00
2018-09-29T16:04:03.444Z,1.00
2018-09-29T16:06:31.761Z,1.27
2018-09-29T16:09:00.146Z,0.90
2018-09-29T16:11:28.400Z,0.77
2018-09-29T16:13:56.700Z,1.20
2018-09-29T16:16:25.037Z,1.03
2018-09-29T16:18:53.350Z,0.90
2018-09-29T16:21:21.662Z,0.90
2018-09-29T16:23:49.981Z,1.63
2018-09-29T16:26:18.281Z,1.10
2018-09-29T16:28:46.593Z,0.90
2018-09-29T16:31:14.919Z,1.17
2018-09-29T16:33:43.306Z,0.90
2018-09-29T16:36:11.597Z,1.20
2018-09-29T16:38:39.909Z,1.00
2018-09-29T16:41:08.237Z,1.10
2018-09-29T16:43:36.603Z,1.10
2018-09-29T16:46:04.872Z,1.13
2018-09-29T16:48:33.333Z,1.03
2018-09-29T16:51:01.670Z,1.00
2018-09-29T16:53:30.021Z,1.10
2018-09-29T16:55:58.308Z,0.90
2018-09-29T16:58:26.630Z,1.00
2018-09-29T17:00:54.930Z,0.93
2018-09-29T17:03:23.269Z,1.00
2018-09-29T17:05:51.558Z,1.27
2018-09-29T17:08:19.874Z,1.00
2018-09-29T17:10:48.177Z,0.90
2018-09-29T17:13:16.490Z,1.03
2018-09-29T17:15:44.838Z,1.00
2018-09-29T17:18:13.137Z,0.90
2018-09-29T17:20:41.443Z,0.80
2018-09-29T17:23:09.757Z,1.17
2018-09-29T17:25:38.049Z,1.33
2018-09-29T17:28:06.362Z,1.17
2018-09-29T17:30:34.653Z,1.13
2018-09-29T17:33:02.981Z,0.93
2018-09-29T17:35:31.303Z,1.43
2018-09-29T17:37:59.615Z,1.30
2018-09-29T17:40:27.927Z,2.10
2018-09-29T17:42:56.250Z,1.70
2018-09-29T17:45:24.567Z,1.77
2018-09-29T17:47:52.873Z,1.50
2018-09-29T17:50:21.184Z,1.50
2018-09-29T17:52:49.546Z,1.33
2018-09-29T17:55:17.817Z,1.67
2018-09-29T17:57:46.119Z,1.53
2018-09-29T18:00:14.432Z,2.47
2018-09-29T18:02:42.733Z,2.70
2018-09-29T18:05:11.073Z,3.23
2018-09-29T18:07:39.364Z,3.10
2018-09-29T18:10:07.737Z,3.67
2018-09-29T18:12:35.989Z,3.37
2018-09-29T18:15:04.750Z,3.03
2018-09-29T18:17:33.051Z,3.00
2018-09-29T18:20:01.357Z,3.10
2018-09-29T18:22:29.654Z,2.27
2018-09-29T18:24:57.985Z,2.23
2018-09-29T18:27:26.365Z,2.27
2018-09-29T18:29:54.672Z,2.53
2018-09-29T18:32:22.972Z,2.10
2018-09-29T18:34:51.292Z,2.30
2018-09-29T18:37:19.614Z,1.80
2018-09-29T18:39:47.927Z,2.00
2018-09-29T18:42:16.226Z,1.30
2018-09-29T18:44:44.674Z,1.57
2018-09-29T18:47:12.948Z,1.60
2018-09-29T18:49:41.296Z,1.60
2018-09-29T18:52:09.798Z,1.33
2018-09-29T18:54:38.133Z,1.73
2018-09-29T18:57:06.476Z,1.90
2018-09-29T18:59:34.809Z,1.90
2018-09-29T19:02:03.109Z,2.47
2018-09-29T19:04:31.457Z,2.53
2018-09-29T19:06:59.760Z,2.77
2018-09-29T19:09:28.094Z,3.20
2018-09-29T19:11:56.452Z,3.67
2018-09-29T19:14:24.736Z,3.00
2018-09-29T19:16:53.070Z,3.43
2018-09-29T19:19:21.394Z,7.13
2018-09-29T19:21:49.697Z,7.77
2018-09-29T19:24:18.020Z,7.30
2018-09-29T19:26:46.359Z,6.60
2018-09-29T19:29:14.651Z,4.40
2018-09-29T19:31:42.979Z,3.43
2018-09-29T19:34:11.273Z,3.70
2018-09-29T19:36:39.606Z,3.97
2018-09-29T19:39:08.025Z,4.00
2018-09-29T19:41:36.348Z,3.53
2018-09-29T19:44:04.818Z,3.40
2018-09-29T19:46:33.132Z,3.57
2018-09-29T19:49:01.453Z,2.77
2018-09-29T19:51:29.784Z,2.80
2018-09-29T19:53:58.108Z,3.13
2018-09-29T19:56:26.466Z,3.07
2018-09-29T19:58:54.835Z,3.40
2018-09-29T20:01:23.188Z,2.87
2018-09-29T20:03:51.569Z,3.87
2018-09-29T20:06:19.907Z,2.40
2018-09-29T20:08:48.205Z,2.57
2018-09-29T20:11:16.549Z,2.37
2018-09-29T20:13:44.893Z,2.27
2018-09-29T20:16:13.208Z,1.97
2018-09-29T20:18:41.546Z,2.10
2018-09-29T20:21:09.888Z,2.27
2018-09-29T20:23:38.192Z,1.77
2018-09-29T20:26:06.535Z,1.80
2018-09-29T20:28:34.857Z,1.87
2018-09-29T20:31:03.188Z,2.53
2018-09-29T20:33:31.586Z,2.03
2018-09-29T20:35:59.973Z,2.10
2018-09-29T20:38:28.412Z,1.60
2018-09-29T20:40:56.737Z,1.70
2018-09-29T20:43:26.061Z,2.87
2018-09-29T20:45:54.461Z,2.40
2018-09-29T20:48:22.748Z,2.70
2018-09-29T20:50:51.073Z,2.60
2018-09-29T20:53:19.369Z,2.37
2018-09-29T20:55:47.685Z,2.47
2018-09-29T20:58:15.976Z,2.43
2018-09-29T21:00:44.289Z,2.97
2018-09-29T21:03:12.578Z,2.93
2018-09-29T21:05:40.922Z,2.90
2018-09-29T21:08:09.244Z,2.93
2018-09-29T21:10:37.537Z,3.07
2018-09-29T21:13:05.919Z,3.13
2018-09-29T21:15:34.181Z,2.90
2018-09-29T21:18:02.493Z,3.73
2018-09-29T21:20:30.790Z,4.30
2018-09-29T21:22:59.109Z,3.90
2018-09-29T21:25:27.402Z,4.23
2018-09-29T21:27:55.744Z,3.80
2018-09-29T21:30:24.150Z,4.37
2018-09-29T21:32:52.469Z,3.87
2018-09-29T21:35:20.767Z,3.50
2018-09-29T21:37:49.090Z,3.13
2018-09-29T21:40:17.381Z,3.40
2018-09-29T21:42:45.696Z,4.27
2018-09-29T21:45:14.001Z,2.83
2018-09-29T21:47:42.374Z,3.23
2018-09-29T21:50:10.677Z,2.80
2018-09-29T21:52:38.993Z,3.47
2018-09-29T21:55:07.281Z,3.20
2018-09-29T21:57:35.593Z,2.80
2018-09-29T22:00:03.969Z,3.47
2018-09-29T22:02:32.285Z,3.17
2018-09-29T22:05:00.586Z,3.30
2018-09-29T22:07:28.905Z,2.97
2018-09-29T22:09:57.225Z,2.97
2018-09-29T22:12:25.533Z,2.70
2018-09-29T22:14:53.839Z,3.00
2018-09-29T22:17:22.197Z,2.63
2018-09-29T22:19:50.512Z,2.50
2018-09-29T22:22:18.834Z,2.40
2018-09-29T22:24:47.133Z,2.73
2018-09-29T22:27:15.449Z,2.37
2018-09-29T22:29:43.737Z,2.77
2018-09-29T22:32:12.069Z,2.83
2018-09-29T22:34:40.371Z,2.87
2018-09-29T22:37:08.691Z,2.67
2018-09-29T22:39:36.990Z,3.27
2018-09-29T22:42:05.307Z,2.90
2018-09-29T22:44:33.610Z,2.83
2018-09-29T22:47:01.932Z,2.70
2018-09-29T22:49:30.233Z,2.80
2018-09-29T22:51:58.521Z,2.80
2018-09-29T22:54:26.849Z,2.00
2018-09-29T22:56:55.188Z,2.00
2018-09-29T22:59:23.512Z,2.10
2018-09-29T23:01:52.684Z,2.07
2018-09-29T23:04:21.001Z,2.30
2018-09-29T23:06:49.307Z,1.97
2018-09-29T23:09:17.625Z,1.70
2018-09-29T23:11:45.976Z,2.10
2018-09-29T23:14:14.297Z,1.80
2018-09-29T23:16:42.641Z,1.80
2018-09-29T23:19:10.990Z,1.93
2018-09-29T23:21:39.317Z,1.60
2018-09-29T23:24:07.848Z,2.43
2018-09-29T23:26:36.257Z,2.27
2018-09-29T23:29:04.655Z,2.30
2018-09-29T23:31:32.969Z,2.03
2018-09-29T23:34:01.850Z,2.00
2018-09-29T23:36:30.669Z,2.10
2018-09-29T23:38:59.093Z,1.80
2018-09-29T23:41:27.681Z,1.70
2018-09-29T23:43:55.995Z,2.20
2018-09-29T23:46:24.292Z,2.03
2018-09-29T23:48:52.599Z,2.50
2018-09-29T23:51:20.888Z,2.30
2018-09-29T23:53:49.345Z,2.30
2018-09-29T23:56:17.649Z,2.17
2018-09-29T23:58:45.962Z,2.20
